Time;durP1;ratioP1;P1;durP2;ratioP2;P2;SDS_P1;SDS_P2;PMS_P1;PMS_P2;Temp;Humidity;BMP_temperature;BMP_pressure;BME280_temperature;BME280_humidity;BME280_pressure;Samples;Min_cycle;Max_cycle;Signal;HPM_P1;HPM_P2
2023/07/20 00:01:30;;;;;;;3.10;0.10;;;;;;;14.05;100.00;100937.66;5053546;28;20040;-62
2023/07/20 00:03:55;;;;;;;0.52;0.10;;;;;;;13.93;100.00;100944.59;5049855;28;20024;-58
2023/07/20 00:06:27;;;;;;;0.70;0.32;;;;;;;13.85;100.00;100942.94;5053329;28;20032;-61
2023/07/20 00:08:52;;;;;;;;;;;;;;;13.92;100.00;100943.78;5049575;28;20025;-56
2023/07/20 00:11:18;;;;;;;0.40;0.20;;;;;;;13.84;100.00;100945.81;5055075;28;19943;-60
2023/07/20 00:13:43;;;;;;;0.00;0.00;;;;;;;13.82;100.00;100940.66;5058795;28;20110;-61
2023/07/20 00:16:09;;;;;;;0.05;0.05;;;;;;;13.78;100.00;100935.94;5055997;28;20063;-58
2023/07/20 00:18:34;;;;;;;2.03;0.10;;;;;;;13.77;100.00;100931.63;5046071;28;20421;-60
2023/07/20 00:20:59;;;;;;;0.00;0.00;;;;;;;13.79;100.00;100924.28;5052466;28;20657;-56
2023/07/20 00:23:25;;;;;;;0.00;0.00;;;;;;;13.81;100.00;100930.19;5053905;28;20461;-59
2023/07/20 00:25:51;;;;;;;1.10;0.20;;;;;;;13.80;100.00;100928.56;5046759;28;20029;-57
2023/07/20 00:28:16;;;;;;;0.45;0.10;;;;;;;13.81;100.00;100928.38;5053959;28;20123;-58
2023/07/20 00:30:41;;;;;;;1.98;0.10;;;;;;;13.80;100.00;100928.56;5050034;28;20358;-60
2023/07/20 00:33:10;;;;;;;0.10;0.10;;;;;;;13.68;100.00;100930.97;5050813;28;20513;-59
2023/07/20 00:35:37;;;;;;;1.35;0.10;;;;;;;13.63;100.00;100931.59;5050677;28;20434;-59
2023/07/20 00:38:03;;;;;;;2.65;0.30;;;;;;;13.60;100.00;100928.50;5051532;28;20367;-60
2023/07/20 00:40:28;;;;;;;0.20;0.10;;;;;;;13.55;100.00;100941.59;5055189;28;20044;-57
2023/07/20 00:42:53;;;;;;;2.10;0.57;;;;;;;13.58;100.00;100931.38;5052951;28;20037;-60
2023/07/20 00:45:19;;;;;;;3.00;0.20;;;;;;;13.49;100.00;100938.72;5047599;28;20033;-60
2023/07/20 00:47:44;;;;;;;1.02;0.00;;;;;;;13.57;100.00;100939.56;5042722;28;20020;-58
2023/07/20 00:50:10;;;;;;;1.50;0.17;;;;;;;13.61;100.00;100941.63;5051122;28;20036;-58
2023/07/20 00:52:39;;;;;;;0.10;0.10;;;;;;;13.66;100.00;100941.84;5049696;28;20066;-59
2023/07/20 00:55:05;;;;;;;0.10;0.10;;;;;;;13.74;100.00;100947.00;5053811;28;20065;-57
2023/07/20 00:57:30;;;;;;;0.03;0.00;;;;;;;13.82;100.00;100942.53;5044954;28;20124;-59
2023/07/20 00:59:55;;;;;;;1.08;0.00;;;;;;;13.89;100.00;100938.03;5053759;28;20038;-58
2023/07/20 01:02:21;;;;;;;1.20;0.00;;;;;;;13.96;100.00;100936.19;5055685;28;20117;-57
2023/07/20 01:04:46;;;;;;;0.17;0.17;;;;;;;13.96;100.00;100944.19;5051886;28;20040;-56
2023/07/20 01:07:25;;;;;;;0.45;0.22;;;;;;;13.86;100.00;100933.09;5029225;28;20040;-61
2023/07/20 01:10:11;;;;;;;0.20;0.20;;;;;;;13.62;100.00;100937.94;5045207;28;22111;-58
2023/07/20 01:12:46;;;;;;;0.00;0.00;;;;;;;13.47;100.00;100934.59;5049045;28;20164;-58
2023/07/20 01:15:12;;;;;;;2.50;0.40;;;;;;;13.42;100.00;100942.38;5047328;28;20477;-57
2023/07/20 01:17:37;;;;;;;5.57;0.20;;;;;;;13.36;100.00;100936.00;5055479;28;20078;-59
2023/07/20 01:20:03;;;;;;;0.55;0.08;;;;;;;13.33;100.00;100931.06;5055807;28;20219;-57
2023/07/20 01:22:42;;;;;;;0.57;0.10;;;;;;;13.25;100.00;100940.00;5052627;28;20027;-60
2023/07/20 01:25:26;;;;;;;3.78;0.10;;;;;;;13.14;100.00;100937.06;5051973;28;20127;-60
2023/07/20 01:28:13;;;;;;;0.57;0.50;;;;;;;12.99;100.00;100937.22;5033053;28;20090;-57
2023/07/20 01:31:00;;;;;;;0.13;0.13;;;;;;;12.97;100.00;100940.06;5051189;28;20383;-57
2023/07/20 01:33:26;;;;;;;0.30;0.10;;;;;;;12.87;100.00;100934.25;5047606;28;20040;-57
2023/07/20 01:35:57;;;;;;;0.55;0.20;;;;;;;12.70;100.00;100939.06;5044382;28;20025;-54
2023/07/20 01:38:23;;;;;;;0.10;0.10;;;;;;;12.61;100.00;100945.53;5044169;28;20083;-57
2023/07/20 01:40:50;;;;;;;0.15;0.10;;;;;;;12.46;100.00;100942.13;5044725;28;20033;-56
2023/07/20 01:43:16;;;;;;;0.38;0.30;;;;;;;12.13;100.00;100946.16;5049848;28;20032;-58
2023/07/20 01:45:41;;;;;;;0.00;0.00;;;;;;;12.31;100.00;100945.69;5046839;28;20035;-57
2023/07/20 01:48:07;;;;;;;0.08;0.00;;;;;;;12.34;100.00;100947.13;5051152;28;20447;-60
2023/07/20 01:50:34;;;;;;;0.65;0.00;;;;;;;12.32;100.00;100941.22;5049241;28;20055;-59
2023/07/20 01:52:59;;;;;;;0.10;0.10;;;;;;;12.36;100.00;100939.81;5058255;28;20029;-59
2023/07/20 01:55:24;;;;;;;0.88;0.10;;;;;;;12.34;100.00;100934.69;5039336;28;20089;-58
2023/07/20 01:57:50;;;;;;;1.08;0.20;;;;;;;12.27;100.00;100933.00;5045531;28;20036;-59
2023/07/20 02:00:15;;;;;;;0.00;0.00;;;;;;;12.28;100.00;100931.97;5050895;28;20028;-60
2023/07/20 02:02:41;;;;;;;0.10;0.05;;;;;;;12.26;100.00;100926.81;5053053;28;20439;-57
2023/07/20 02:05:07;;;;;;;0.70;0.22;;;;;;;12.31;100.00;100929.72;5044784;28;20094;-56
2023/07/20 02:07:32;;;;;;;0.35;0.00;;;;;;;12.36;100.00;100932.66;5048016;28;20033;-59
2023/07/20 02:09:58;;;;;;;0.13;0.10;;;;;;;12.43;100.00;100930.88;5042863;28;20028;-56
2023/07/20 02:12:23;;;;;;;0.32;0.32;;;;;;;12.47;100.00;100931.31;5043297;28;20056;-56
2023/07/20 02:14:51;;;;;;;3.15;0.85;;;;;;;12.51;100.00;100929.09;5041415;28;20621;-58
2023/07/20 02:17:16;;;;;;;0.47;0.10;;;;;;;12.47;100.00;100933.13;5052878;28;20052;-56
2023/07/20 02:19:41;;;;;;;1.55;0.17;;;;;;;12.47;100.00;100943.78;5053400;28;20033;-56
2023/07/20 02:22:07;;;;;;;0.10;0.10;;;;;;;12.51;100.00;100932.56;5052020;28;20079;-57
2023/07/20 02:24:33;;;;;;;0.22;0.10;;;;;;;12.49;100.00;100923.13;5048804;28;20505;-58
2023/07/20 02:26:59;;;;;;;5.60;0.20;;;;;;;12.39;100.00;100926.97;5072971;28;20024;-60
2023/07/20 02:29:24;;;;;;;1.30;0.30;;;;;;;12.27;100.00;100920.50;5058905;28;20024;-57
2023/07/20 02:31:50;;;;;;;0.63;0.20;;;;;;;11.61;100.00;100935.75;5062833;28;20036;-56
2023/07/20 02:34:15;;;;;;;0.25;0.10;;;;;;;12.00;100.00;100924.75;5046370;28;20056;-56
2023/07/20 02:36:42;;;;;;;0.32;0.32;;;;;;;12.03;100.00;100931.53;5058472;28;20021;-57
2023/07/20 02:39:08;;;;;;;0.20;0.10;;;;;;;12.07;100.00;100930.13;5050140;28;20497;-60
2023/07/20 02:41:33;;;;;;;0.13;0.10;;;;;;;12.05;100.00;100927.66;5049984;28;20044;-56
2023/07/20 02:43:58;;;;;;;0.40;0.05;;;;;;;12.06;100.00;100925.84;5059989;28;20409;-57
2023/07/20 02:46:24;;;;;;;0.20;0.13;;;;;;;12.04;100.00;100926.03;5062633;28;20035;-55
2023/07/20 02:48:49;;;;;;;2.15;0.10;;;;;;;12.05;100.00;100929.50;5057599;28;20524;-57
2023/07/20 02:51:15;;;;;;;2.75;0.20;;;;;;;12.04;100.00;100922.56;5060044;28;20278;-55
2023/07/20 02:53:41;;;;;;;0.98;0.17;;;;;;;12.02;100.00;100925.38;5051753;28;20056;-57
2023/07/20 02:56:07;;;;;;;0.20;0.20;;;;;;;11.99;100.00;100929.25;5054691;28;20044;-55
2023/07/20 02:58:36;;;;;;;1.15;0.40;;;;;;;11.96;100.00;100926.97;5048732;28;20028;-55
2023/07/20 03:01:02;;;;;;;0.05;0.00;;;;;;;11.95;100.00;100920.03;5064649;28;20473;-59
2023/07/20 03:03:27;;;;;;;0.50;0.38;;;;;;;11.92;100.00;100924.88;5049093;28;20140;-60
2023/07/20 03:05:54;;;;;;;1.38;0.00;;;;;;;11.96;100.00;100926.16;5060330;28;20043;-59
2023/07/20 03:08:20;;;;;;;1.83;0.43;;;;;;;11.94;100.00;100929.00;5048305;28;20364;-56
2023/07/20 03:10:45;;;;;;;0.10;0.03;;;;;;;12.00;100.00;100933.56;5035700;28;20098;-59
2023/07/20 03:13:10;;;;;;;1.02;0.22;;;;;;;12.00;100.00;100927.41;5055667;28;20393;-58
2023/07/20 03:15:36;;;;;;;0.10;0.10;;;;;;;11.95;100.00;100929.81;5053501;28;20059;-56
2023/07/20 03:18:01;;;;;;;5.00;0.15;;;;;;;11.89;100.00;100931.38;5055605;28;20409;-58
2023/07/20 03:20:26;;;;;;;0.73;0.20;;;;;;;11.82;100.00;100933.09;5053857;28;20032;-61
2023/07/20 03:22:52;;;;;;;0.73;0.40;;;;;;;11.77;100.00;100939.00;5052534;28;20029;-60
2023/07/20 03:25:17;;;;;;;0.32;0.13;;;;;;;11.72;100.00;100938.75;5053404;28;20553;-61
2023/07/20 03:27:42;;;;;;;0.28;0.10;;;;;;;11.66;100.00;100943.97;5050601;28;20508;-61
2023/07/20 03:30:09;;;;;;;5.15;0.30;;;;;;;11.60;100.00;100947.38;5050237;28;20578;-59
2023/07/20 03:32:35;;;;;;;0.70;0.70;;;;;;;11.58;100.00;100944.91;5045346;28;20094;-61
2023/07/20 03:35:00;;;;;;;7.55;1.00;;;;;;;11.55;100.00;100943.44;5054712;28;20477;-61
2023/07/20 03:37:25;;;;;;;2.40;0.10;;;;;;;11.50;100.00;100948.50;5054401;28;20044;-59
2023/07/20 03:39:51;;;;;;;1.65;0.20;;;;;;;11.51;100.00;100952.81;5040491;28;20036;-55
2023/07/20 03:42:16;;;;;;;1.75;0.20;;;;;;;11.51;100.00;100939.53;5055422;28;20127;-60
2023/07/20 03:44:41;;;;;;;2.60;0.73;;;;;;;11.49;100.00;100946.84;5051702;28;20632;-58
2023/07/20 03:47:07;;;;;;;0.90;0.70;;;;;;;11.38;100.00;100944.66;5055802;28;20071;-56
2023/07/20 03:49:32;;;;;;;1.85;0.57;;;;;;;11.32;100.00;100942.75;5053902;28;20025;-57
2023/07/20 03:51:58;;;;;;;1.25;0.30;;;;;;;11.34;100.00;100943.38;5040209;28;20032;-57
2023/07/20 03:54:23;;;;;;;0.98;0.10;;;;;;;11.33;100.00;100942.56;5052837;28;20129;-53
2023/07/20 03:56:49;;;;;;;0.50;0.38;;;;;;;11.27;100.00;100942.47;5039074;28;20025;-56
2023/07/20 03:59:14;;;;;;;0.45;0.20;;;;;;;11.25;100.00;100941.84;5036127;28;20758;-56
2023/07/20 04:01:40;;;;;;;0.40;0.40;;;;;;;11.29;100.00;100940.47;5054864;28;20029;-57
2023/07/20 04:04:07;;;;;;;0.25;0.15;;;;;;;11.24;100.00;100940.19;5048036;28;20032;-55
2023/07/20 04:06:33;;;;;;;0.22;0.10;;;;;;;11.25;100.00;100942.66;5066565;28;20102;-55
2023/07/20 04:08:58;;;;;;;1.05;0.30;;;;;;;11.20;100.00;100941.56;5043768;28;20021;-58
2023/07/20 04:11:23;;;;;;;0.30;0.30;;;;;;;11.09;100.00;100942.84;5059880;28;20840;-56
2023/07/20 04:13:49;;;;;;;1.02;0.10;;;;;;;11.01;100.00;100943.75;5040093;28;20520;-56
2023/07/20 04:16:14;;;;;;;3.30;0.28;;;;;;;10.98;100.00;100940.66;5058530;28;20075;-53
2023/07/20 04:18:39;;;;;;;1.85;0.90;;;;;;;10.97;100.00;100944.28;5046019;28;20039;-56
2023/07/20 04:21:07;;;;;;;2.08;1.88;;;;;;;10.91;100.00;100945.84;5045656;28;20100;-54
2023/07/20 04:23:32;;;;;;;0.20;0.20;;;;;;;10.88;100.00;100944.38;5054138;28;20389;-55
2023/07/20 04:25:58;;;;;;;0.73;0.20;;;;;;;10.87;100.00;100941.94;5049953;28;20120;-55
2023/07/20 04:28:23;;;;;;;3.92;1.25;;;;;;;10.86;100.00;100945.56;5053868;28;20545;-53
2023/07/20 04:30:50;;;;;;;3.03;0.57;;;;;;;10.84;100.00;100947.56;5043904;28;20033;-54
2023/07/20 04:33:17;;;;;;;3.05;0.30;;;;;;;10.71;100.00;100950.84;5050336;28;20115;-59
2023/07/20 04:35:53;;;;;;;1.23;0.50;;;;;;;10.86;100.00;100945.56;5046879;28;20485;-57
2023/07/20 04:38:19;;;;;;;0.43;0.43;;;;;;;10.89;100.00;100951.38;5048654;28;20028;-58
2023/07/20 04:40:49;;;;;;;0.98;0.30;;;;;;;10.81;100.00;100948.75;5050011;28;20154;-57
2023/07/20 04:43:15;;;;;;;2.05;0.45;;;;;;;10.83;100.00;100948.59;5057314;28;20131;-57
2023/07/20 04:45:40;;;;;;;0.40;0.38;;;;;;;10.84;100.00;100948.44;5033204;28;20069;-57
2023/07/20 04:48:10;;;;;;;1.13;0.45;;;;;;;10.84;100.00;100961.69;5053618;28;20063;-57
2023/07/20 04:50:35;;;;;;;1.23;0.00;;;;;;;10.93;100.00;100956.28;5046041;28;20056;-56
2023/07/20 04:53:01;;;;;;;1.73;0.45;;;;;;;10.95;100.00;100952.47;5048993;28;20025;-56
2023/07/20 04:55:27;;;;;;;1.17;0.63;;;;;;;10.89;100.00;100951.38;5046590;28;20041;-57
2023/07/20 04:57:53;;;;;;;0.55;0.28;;;;;;;10.91;100.00;100951.16;5055714;28;20078;-54
2023/07/20 05:00:19;;;;;;;0.57;0.57;;;;;;;10.94;100.00;100953.44;5041189;28;20322;-54
2023/07/20 05:02:45;;;;;;;0.50;0.22;;;;;;;10.94;100.00;100952.63;5048630;28;20048;-58
2023/07/20 05:05:10;;;;;;;5.47;0.35;;;;;;;10.95;100.00;100949.81;5049528;28;20024;-57
2023/07/20 05:07:35;;;;;;;0.50;0.50;;;;;;;10.97;100.00;100952.25;5050844;28;20039;-52
2023/07/20 05:10:01;;;;;;;1.25;0.25;;;;;;;10.97;100.00;100947.78;5047752;28;20028;-58
2023/07/20 05:12:26;;;;;;;2.38;1.30;;;;;;;10.96;100.00;100955.94;5059409;28;20583;-57
2023/07/20 05:14:51;;;;;;;1.58;0.50;;;;;;;10.91;100.00;100959.94;5045155;28;20112;-59
2023/07/20 05:17:17;;;;;;;3.20;0.30;;;;;;;10.93;100.00;100957.13;5055137;28;20147;-56
2023/07/20 05:19:42;;;;;;;0.80;0.40;;;;;;;10.98;100.00;100964.53;5053368;28;20393;-56
2023/07/20 05:22:07;;;;;;;0.47;0.10;;;;;;;11.02;100.00;100958.69;5060766;28;20123;-56
2023/07/20 05:24:33;;;;;;;0.82;0.20;;;;;;;11.11;100.00;100962.06;5048260;28;20505;-58
2023/07/20 05:26:58;;;;;;;0.40;0.40;;;;;;;11.16;100.00;100956.22;5052673;28;20136;-58
2023/07/20 05:29:25;;;;;;;0.50;0.50;;;;;;;11.18;100.00;100949.72;5042974;28;20040;-56
2023/07/20 05:31:50;;;;;;;0.30;0.20;;;;;;;11.21;100.00;100957.31;5047501;28;20036;-54
2023/07/20 05:34:16;;;;;;;0.32;0.32;;;;;;;11.29;100.00;100953.75;5036399;28;20028;-57
2023/07/20 05:36:41;;;;;;;0.17;0.10;;;;;;;11.39;100.00;100953.47;5047317;28;20119;-56
2023/07/20 05:39:06;;;;;;;0.47;0.30;;;;;;;11.54;100.00;100957.75;5053534;28;20067;-57
2023/07/20 05:41:32;;;;;;;2.03;0.25;;;;;;;11.73;100.00;100955.50;5037450;28;20240;-57
2023/07/20 05:43:57;;;;;;;0.85;0.60;;;;;;;11.89;100.00;100955.31;5052841;28;20071;-59
2023/07/20 05:46:24;;;;;;;0.77;0.60;;;;;;;11.95;100.00;100951.91;5049599;28;20500;-56
2023/07/20 05:48:49;;;;;;;0.50;0.50;;;;;;;11.98;100.00;100946.22;5052014;28;20034;-59
2023/07/20 05:51:15;;;;;;;0.57;0.55;;;;;;;12.08;100.00;100945.06;5056200;28;20453;-60
2023/07/20 05:53:41;;;;;;;2.28;0.50;;;;;;;12.16;100.00;100944.97;5061989;28;20358;-57
2023/07/20 05:56:10;;;;;;;2.55;0.38;;;;;;;12.18;100.00;100938.44;5067816;28;20036;-55
2023/07/20 05:58:35;;;;;;;1.02;0.50;;;;;;;12.27;100.00;100933.81;5053980;28;20127;-58
2023/07/20 06:01:02;;;;;;;1.30;0.52;;;;;;;12.47;100.00;100943.78;5052321;28;20151;-57
2023/07/20 06:03:27;;;;;;;1.13;1.10;;;;;;;12.49;100.00;100941.75;5052555;28;20059;-59
2023/07/20 06:05:58;;;;;;;0.35;0.35;;;;;;;12.51;100.00;100940.53;5035713;28;20037;-59
2023/07/20 06:08:24;;;;;;;5.13;0.63;;;;;;;12.66;100.00;100940.47;5043254;28;20027;-58
2023/07/20 06:10:52;;;;;;;0.75;0.30;;;;;;;12.77;100.00;100950.56;5047743;28;20045;-58
2023/07/20 06:13:17;;;;;;;1.85;0.70;;;;;;;12.87;100.00;100943.06;5055252;28;20436;-56
2023/07/20 06:15:43;;;;;;;0.68;0.57;;;;;;;12.99;100.00;100942.53;5049474;28;20036;-57
2023/07/20 06:18:08;;;;;;;1.13;0.90;;;;;;;12.98;100.00;100939.03;5064048;28;20075;-56
2023/07/20 06:20:34;;;;;;;0.43;0.43;;;;;;;13.08;100.00;100936.84;5048614;28;20217;-56
2023/07/20 06:22:59;;;;;;;0.57;0.57;;;;;;;13.16;100.00;100933.19;5048808;28;20111;-54
2023/07/20 06:25:24;;;;;;;0.80;0.63;;;;;;;13.27;100.00;100930.03;5046290;28;20061;-56
2023/07/20 06:27:53;;;;;;;2.25;0.38;;;;;;;13.43;100.00;100936.84;5055930;28;20155;-58
2023/07/20 06:30:19;;;;;;;1.27;0.70;;;;;;;13.59;100.00;100942.84;5052450;28;20032;-59
2023/07/20 06:32:44;;;;;;;4.80;1.10;;;;;;;13.69;100.00;100935.31;5048389;28;20033;-57
2023/07/20 06:35:10;;;;;;;1.00;0.77;;;;;;;13.86;100.00;100935.75;5055332;28;20097;-60
2023/07/20 06:37:35;;;;;;;1.63;0.22;;;;;;;14.05;100.00;100931.50;5050491;28;20491;-57
2023/07/20 06:40:03;;;;;;;3.80;0.25;;;;;;;14.11;100.00;100933.34;5058628;28;20062;-58
2023/07/20 06:42:29;;;;;;;1.20;1.10;;;;;;;14.11;100.00;100931.50;5065457;28;20035;-57
2023/07/20 06:44:54;;;;;;;1.90;0.45;;;;;;;14.10;100.00;100935.19;5056980;28;20389;-58
2023/07/20 06:47:20;;;;;;;1.88;0.52;;;;;;;14.29;100.00;100922.06;5058304;28;20040;-59
2023/07/20 06:49:45;;;;;;;1.70;0.63;;;;;;;14.43;100.00;100926.41;5052493;28;20044;-60
2023/07/20 06:52:10;;;;;;;1.02;0.38;;;;;;;14.55;100.00;100927.44;5057065;28;20031;-56
2023/07/20 06:54:36;;;;;;;0.55;0.28;;;;;;;14.67;100.00;100929.50;5048512;28;20033;-60
2023/07/20 06:57:01;;;;;;;2.75;0.47;;;;;;;14.83;100.00;100924.53;5057014;28;20035;-58
2023/07/20 06:59:27;;;;;;;1.17;0.20;;;;;;;14.89;100.00;100930.88;5047982;28;20043;-56
2023/07/20 07:01:52;;;;;;;1.98;0.20;;;;;;;15.02;100.00;100930.03;5054386;28;20125;-63
2023/07/20 07:04:17;;;;;;;0.80;0.38;;;;;;;15.22;100.00;100921.97;5051203;28;20127;-62
2023/07/20 07:06:44;;;;;;;0.50;0.50;;;;;;;15.32;100.00;100918.84;5050468;28;20028;-59
2023/07/20 07:09:09;;;;;;;0.93;0.50;;;;;;;15.38;100.00;100918.81;5049480;28;20059;-61
2023/07/20 07:11:35;;;;;;;0.90;0.73;;;;;;;15.61;100.00;100922.84;5046544;28;20108;-61
2023/07/20 07:14:00;;;;;;;2.83;0.40;;;;;;;15.76;100.00;100934.09;5065863;28;20029;-61
2023/07/20 07:16:25;;;;;;;0.85;0.85;;;;;;;15.82;100.00;100921.72;5049035;28;20132;-63
2023/07/20 07:18:51;;;;;;;1.67;0.52;;;;;;;15.89;100.00;100917.97;5059250;28;20037;-60
2023/07/20 07:21:16;;;;;;;0.90;0.30;;;;;;;15.98;100.00;100918.56;5048512;28;20033;-62
2023/07/20 07:23:42;;;;;;;0.22;0.10;;;;;;;16.07;100.00;100919.09;5052686;28;20502;-60
2023/07/20 07:26:08;;;;;;;0.68;0.30;;;;;;;16.14;100.00;100917.19;5052783;28;20041;-62
2023/07/20 07:28:33;;;;;;;0.63;0.47;;;;;;;16.25;100.00;100916.50;5047074;28;20060;-63
2023/07/20 07:30:59;;;;;;;0.35;0.15;;;;;;;16.50;100.00;100913.00;5049959;28;20178;-62
2023/07/20 07:33:24;;;;;;;0.22;0.22;;;;;;;16.65;100.00;100905.44;5040782;28;20024;-63
2023/07/20 07:35:52;;;;;;;2.45;0.73;;;;;;;16.75;100.00;100905.78;5053115;28;20073;-63
2023/07/20 07:38:18;;;;;;;0.75;0.10;;;;;;;16.86;100.00;100898.06;5053310;28;20045;-62
2023/07/20 07:40:43;;;;;;;0.32;0.28;;;;;;;16.93;100.00;100904.97;5042600;28;20047;-60
2023/07/20 07:43:13;;;;;;;1.20;0.55;;;;;;;16.96;100.00;100895.66;5051463;28;20417;-64
2023/07/20 07:45:38;;;;;;;3.13;0.10;;;;;;;17.06;100.00;100900.50;5049223;28;20036;-62
2023/07/20 07:48:04;;;;;;;2.67;0.20;;;;;;;17.23;100.00;100886.28;5058871;28;20028;-63
2023/07/20 07:50:30;;;;;;;1.27;0.22;;;;;;;17.38;100.00;100882.41;5052917;28;20044;-63
2023/07/20 07:52:55;;;;;;;1.95;0.03;;;;;;;17.52;100.00;100881.16;5054585;28;20056;-62
2023/07/20 07:55:20;;;;;;;0.95;0.38;;;;;;;17.66;100.00;100877.28;5050642;28;20043;-61
2023/07/20 07:57:47;;;;;;;0.55;0.22;;;;;;;17.82;100.00;100873.16;5055675;28;20119;-52
2023/07/20 08:00:14;;;;;;;0.20;0.10;;;;;;;17.87;100.00;100872.47;5048184;28;20024;-63
2023/07/20 08:02:41;;;;;;;1.83;0.20;;;;;;;18.01;100.00;100883.81;5045901;28;20075;-63
2023/07/20 08:05:07;;;;;;;0.20;0.20;;;;;;;18.07;100.00;100875.66;5050876;28;20040;-63
2023/07/20 08:07:33;;;;;;;0.88;0.45;;;;;;;18.15;100.00;100876.34;5060246;28;20085;-63
2023/07/20 08:09:59;;;;;;;14.40;0.35;;;;;;;18.31;100.00;100870.31;5059993;28;20028;-63
2023/07/20 08:12:24;;;;;;;0.47;0.13;;;;;;;18.57;100.00;100871.72;5052824;28;20567;-57
2023/07/20 08:14:49;;;;;;;0.32;0.30;;;;;;;18.51;100.00;100873.47;5057033;28;20123;-60
2023/07/20 08:17:15;;;;;;;1.70;0.40;;;;;;;18.42;100.00;100869.50;5030584;28;20423;-61
2023/07/20 08:19:41;;;;;;;1.67;0.60;;;;;;;18.47;100.00;100869.59;5050464;28;20111;-62
2023/07/20 08:22:07;;;;;;;2.88;0.25;;;;;;;18.70;100.00;100874.16;5051027;28;20393;-64
2023/07/20 08:24:33;;;;;;;0.90;0.65;;;;;;;18.88;100.00;100877.78;5049662;28;20040;-64
2023/07/20 08:26:58;;;;;;;0.80;0.10;;;;;;;19.14;100.00;100866.50;5052131;28;20039;-64
2023/07/20 08:29:24;;;;;;;0.40;0.40;;;;;;;19.27;100.00;100865.41;5053438;28;20040;-64
2023/07/20 08:31:49;;;;;;;0.68;0.20;;;;;;;19.26;100.00;100866.47;5052598;28;20028;-64
2023/07/20 08:34:15;;;;;;;0.65;0.20;;;;;;;19.15;100.00;100861.94;5054731;28;20037;-64
2023/07/20 08:36:40;;;;;;;2.17;0.05;;;;;;;19.25;100.00;100869.38;5061322;28;20037;-63
2023/07/20 08:39:07;;;;;;;0.45;0.00;;;;;;;19.28;100.00;100864.34;5059283;28;20033;-62
2023/07/20 08:41:34;;;;;;;0.25;0.20;;;;;;;19.25;100.00;100862.13;5058032;28;20037;-64
2023/07/20 08:44:01;;;;;;;1.65;0.10;;;;;;;19.30;100.00;100862.22;5055578;28;20086;-64
2023/07/20 08:46:28;;;;;;;0.10;0.00;;;;;;;19.50;100.00;100867.19;5054643;28;20643;-64
2023/07/20 08:48:56;;;;;;;1.30;0.10;;;;;;;19.57;100.00;100872.44;5047634;28;20029;-61
2023/07/20 08:51:22;;;;;;;1.42;0.70;;;;;;;19.35;100.00;100870.41;5063471;28;20227;-64
2023/07/20 08:53:50;;;;;;;0.63;0.00;;;;;;;19.47;100.00;100865.00;5054084;28;20032;-64
2023/07/20 08:56:17;;;;;;;0.70;0.70;;;;;;;19.68;100.00;100870.78;5048000;28;20029;-62
2023/07/20 08:58:44;;;;;;;1.48;0.50;;;;;;;19.43;100.00;100868.38;5051520;28;20040;-61
2023/07/20 09:01:10;;;;;;;2.38;0.20;;;;;;;19.50;100.00;100871.75;5051874;28;20025;-59
2023/07/20 09:03:39;;;;;;;0.88;0.10;;;;;;;19.59;100.00;100863.06;5048655;28;20136;-64
2023/07/20 09:06:05;;;;;;;0.20;0.10;;;;;;;19.67;100.00;100861.03;5044202;28;20039;-63
2023/07/20 09:08:31;;;;;;;0.30;0.30;;;;;;;19.66;100.00;100864.78;5044184;28;20041;-63
2023/07/20 09:10:56;;;;;;;0.30;0.20;;;;;;;19.72;100.00;100855.75;5062195;28;20034;-64
2023/07/20 09:13:22;;;;;;;0.08;0.00;;;;;;;19.93;100.00;100857.75;5054173;28;20086;-64
2023/07/20 09:15:53;;;;;;;0.50;0.20;;;;;;;20.14;100.00;100856.22;5041749;28;20383;-64
2023/07/20 09:18:27;;;;;;;1.90;0.13;;;;;;;20.42;100.00;100860.66;5017780;28;20086;-64
2023/07/20 09:20:53;;;;;;;0.10;0.10;;;;;;;20.46;100.00;100855.59;5054099;28;20029;-62
2023/07/20 09:23:19;;;;;;;0.60;0.10;;;;;;;20.27;100.00;100855.88;5058745;28;20029;-61
2023/07/20 09:25:46;;;;;;;2.53;0.90;;;;;;;20.16;100.00;100847.88;5044732;28;20032;-63
2023/07/20 09:28:12;;;;;;;0.10;0.10;;;;;;;20.43;100.00;100854.22;5055317;28;20656;-64
2023/07/20 09:30:37;;;;;;;0.90;0.10;;;;;;;20.75;100.00;100855.47;5061457;28;20136;-64
2023/07/20 09:33:02;;;;;;;1.05;0.25;;;;;;;20.65;100.00;100848.06;5046507;28;20553;-59
2023/07/20 09:35:28;;;;;;;0.00;0.00;;;;;;;20.62;100.00;100843.19;5059363;28;20762;-64
2023/07/20 09:38:01;;;;;;;0.20;0.20;;;;;;;20.92;100.00;100843.56;5037850;28;20411;-63
2023/07/20 09:40:27;;;;;;;0.08;0.00;;;;;;;21.39;100.00;100838.72;5051456;28;20032;-64
2023/07/20 09:43:00;;;;;;;0.40;0.30;;;;;;;21.49;100.00;100828.84;5043962;28;20501;-62
2023/07/20 09:45:41;;;;;;;0.00;0.00;;;;;;;21.63;100.00;100831.13;5045934;28;20077;-65
2023/07/20 09:48:08;;;;;;;2.20;0.20;;;;;;;21.74;100.00;100830.19;5051156;28;20075;-65
2023/07/20 09:50:34;;;;;;;0.10;0.05;;;;;;;21.86;100.00;100832.69;5058373;28;20438;-64
2023/07/20 09:53:02;;;;;;;3.35;0.22;;;;;;;21.90;100.00;100829.22;5044635;28;20038;-64
2023/07/20 09:55:28;;;;;;;1.27;0.10;;;;;;;22.06;100.00;100830.13;5052091;28;20493;-64
2023/07/20 09:57:55;;;;;;;0.20;0.05;;;;;;;21.96;100.00;100827.38;5041645;28;20094;-65
2023/07/20 10:00:21;;;;;;;0.10;0.00;;;;;;;21.90;97.61;100821.13;5042444;28;20245;-65
2023/07/20 10:02:46;;;;;;;0.00;0.00;;;;;;;22.16;96.27;100818.59;5049391;28;20163;-64
2023/07/20 10:05:13;;;;;;;0.10;0.00;;;;;;;22.02;94.31;100825.50;5036705;28;20405;-58
2023/07/20 10:07:44;;;;;;;1.20;0.10;;;;;;;21.94;96.80;100824.09;5053768;28;20031;-60
2023/07/20 10:10:11;;;;;;;0.15;0.03;;;;;;;22.08;96.84;100819.91;5047522;28;20036;-63
2023/07/20 10:12:39;;;;;;;0.85;0.20;;;;;;;22.16;93.13;100818.59;5056363;28;20032;-64
2023/07/20 10:15:11;;;;;;;0.10;0.00;;;;;;;22.49;95.00;100811.28;5044947;28;20037;-63
2023/07/20 10:17:49;;;;;;;2.53;0.00;;;;;;;22.96;96.56;100818.50;5050700;28;20474;-64
2023/07/20 10:20:16;;;;;;;0.28;0.00;;;;;;;23.29;96.07;100809.97;5057352;28;20119;-64
2023/07/20 10:22:45;;;;;;;0.73;0.10;;;;;;;23.60;96.17;100807.28;5051985;28;20114;-61
2023/07/20 10:25:11;;;;;;;0.30;0.30;;;;;;;23.79;93.04;100807.59;5047066;28;20033;-61
2023/07/20 10:27:39;;;;;;;0.35;0.35;;;;;;;23.63;89.69;100812.16;5035151;28;20371;-64
2023/07/20 10:30:05;;;;;;;0.20;0.00;;;;;;;23.44;89.90;100811.03;5057921;28;20028;-62
2023/07/20 10:32:30;;;;;;;0.32;0.32;;;;;;;23.10;88.92;100808.81;5053173;28;20857;-64
2023/07/20 10:34:56;;;;;;;0.70;0.00;;;;;;;23.02;87.38;100801.22;5048175;28;20032;-56
2023/07/20 10:37:54;;;;;;;1.75;0.10;;;;;;;23.59;90.18;100812.97;5051758;28;20477;-64
2023/07/20 10:40:26;;;;;;;0.00;0.00;;;;;;;23.25;86.20;100808.84;5059294;28;20032;-64
2023/07/20 10:42:59;;;;;;;0.20;0.20;;;;;;;22.44;87.07;100817.47;5055393;28;20036;-64
2023/07/20 10:45:42;;;;;;;0.00;0.00;;;;;;;21.93;84.62;100811.69;5052259;28;20468;-64
2023/07/20 10:48:15;;;;;;;4.32;0.22;;;;;;;21.71;88.21;100809.06;5053952;28;20040;-63
2023/07/20 10:50:42;;;;;;;0.30;0.00;;;;;;;22.43;85.18;100808.56;5048555;28;20036;-64
2023/07/20 10:53:13;;;;;;;1.33;0.00;;;;;;;22.95;80.98;100811.44;5053007;28;20079;-64
2023/07/20 10:55:39;;;;;;;1.05;0.05;;;;;;;23.67;81.13;100794.31;5043205;28;20082;-63
2023/07/20 10:58:09;;;;;;;0.00;0.00;;;;;;;23.75;75.79;100790.28;5045587;28;20069;-64
2023/07/20 11:00:35;;;;;;;0.20;0.00;;;;;;;23.35;76.65;100799.97;5059669;28;20056;-64
2023/07/20 11:03:02;;;;;;;1.10;0.05;;;;;;;23.28;77.80;100794.00;5035261;28;20042;-64
2023/07/20 11:05:38;;;;;;;0.52;0.00;;;;;;;23.24;73.42;100793.72;5063267;28;20040;-62
2023/07/20 11:08:25;;;;;;;0.17;0.17;;;;;;;22.64;77.72;100793.25;5049391;28;20028;-63
2023/07/20 11:11:26;;;;;;;0.00;0.00;;;;;;;22.38;77.72;100792.31;5050014;28;20395;-61
2023/07/20 11:14:02;;;;;;;;;;;;;;;22.36;75.48;100793.66;5026809;28;20108;-64
2023/07/20 11:16:38;;;;;;;0.73;0.00;;;;;;;23.00;76.09;100785.28;5046474;28;19924;-64
2023/07/20 11:19:04;;;;;;;0.25;0.00;;;;;;;23.51;75.63;100789.97;5050056;28;20037;-60